createdAt,value
2018-01-22T00:00:01.162Z,2.10
2018-01-22T00:02:27.576Z,2.20
2018-01-22T00:04:54.003Z,2.00
2018-01-22T00:07:20.441Z,2.10
2018-01-22T00:09:46.827Z,1.90
2018-01-22T00:12:13.296Z,2.00
2018-01-22T00:14:39.681Z,2.27
2018-01-22T00:17:06.079Z,1.90
2018-01-22T00:19:32.510Z,1.80
2018-01-22T00:21:58.954Z,1.90
2018-01-22T00:24:25.363Z,2.00
2018-01-22T00:26:51.780Z,2.00
2018-01-22T00:29:18.223Z,1.97
2018-01-22T00:31:44.627Z,1.90
2018-01-22T00:34:11.048Z,2.00
2018-01-22T00:36:37.495Z,2.20
2018-01-22T00:41:35.732Z,1.77
2018-01-22T00:44:02.148Z,1.93
2018-01-22T00:46:28.580Z,1.80
2018-01-22T00:48:55.000Z,2.00
2018-01-22T00:51:21.421Z,1.63
2018-01-22T00:53:47.819Z,1.90
2018-01-22T00:56:14.216Z,2.00
2018-01-22T00:58:40.641Z,1.63
2018-01-22T01:01:07.065Z,1.90
2018-01-22T01:03:33.480Z,1.60
2018-01-22T01:05:59.916Z,1.67
2018-01-22T01:08:26.335Z,2.00
2018-01-22T01:10:52.760Z,1.93
2018-01-22T01:13:19.223Z,1.60
2018-01-22T01:15:45.649Z,2.00
2018-01-22T01:18:12.049Z,1.70
2018-01-22T01:20:38.463Z,1.93
2018-01-22T01:23:04.863Z,1.60
2018-01-22T01:25:31.277Z,1.47
2018-01-22T01:27:57.684Z,1.80
2018-01-22T01:30:24.120Z,2.00
2018-01-22T01:32:50.648Z,1.60
2018-01-22T01:35:17.059Z,1.70
2018-01-22T01:42:47.439Z,1.60
2018-01-22T01:50:18.946Z,1.60
2018-01-22T01:52:45.348Z,1.57
2018-01-22T01:55:11.755Z,1.63
2018-01-22T01:57:38.180Z,1.47
2018-01-22T02:00:04.609Z,1.50
2018-01-22T02:02:31.054Z,1.83
2018-01-22T02:04:57.413Z,1.67
2018-01-22T02:09:57.007Z,1.60
2018-01-22T02:12:23.416Z,1.40
2018-01-22T02:14:49.836Z,1.50
2018-01-22T02:17:16.243Z,1.60
2018-01-22T02:19:42.664Z,1.73
2018-01-22T02:22:09.052Z,1.40
2018-01-22T02:24:35.477Z,1.57
2018-01-22T02:27:01.886Z,1.77
2018-01-22T02:29:28.288Z,1.40
2018-01-22T02:31:54.724Z,1.30
2018-01-22T02:34:21.141Z,1.43
2018-01-22T02:36:47.599Z,1.33
2018-01-22T02:39:13.999Z,1.40
2018-01-22T02:41:40.405Z,1.40
2018-01-22T02:44:06.826Z,1.60
2018-01-22T02:46:33.255Z,1.30
2018-01-22T02:48:59.660Z,1.47
2018-01-22T02:51:26.072Z,1.40
2018-01-22T02:53:52.493Z,1.57
2018-01-22T02:56:18.904Z,1.40
2018-01-22T02:58:45.456Z,1.37
2018-01-22T03:01:11.912Z,1.10
2018-01-22T03:03:38.338Z,1.20
2018-01-22T03:06:06.936Z,1.30
2018-01-22T03:08:33.359Z,1.03
2018-01-22T03:10:59.773Z,1.03
2018-01-22T03:13:26.197Z,1.30
2018-01-22T03:15:52.616Z,1.20
2018-01-22T03:18:19.029Z,1.03
2018-01-22T03:20:45.588Z,1.10
2018-01-22T03:23:12.006Z,1.00
2018-01-22T03:25:38.412Z,1.10
2018-01-22T03:28:04.829Z,0.97
2018-01-22T03:30:31.246Z,1.10
2018-01-22T03:32:57.644Z,1.03
2018-01-22T03:35:24.217Z,0.90
2018-01-22T03:37:50.612Z,1.00
2018-01-22T03:40:17.008Z,1.10
2018-01-22T03:42:46.897Z,1.27
2018-01-22T03:45:13.313Z,1.10
2018-01-22T03:47:39.700Z,1.03
2018-01-22T03:50:06.108Z,1.00
2018-01-22T03:52:32.516Z,1.00
2018-01-22T03:54:58.932Z,0.83
2018-01-22T03:57:25.488Z,1.20
2018-01-22T03:59:51.888Z,0.90
2018-01-22T04:02:18.298Z,1.10
2018-01-22T04:04:44.847Z,1.20
2018-01-22T04:07:11.244Z,0.90
2018-01-22T04:09:37.631Z,0.90
2018-01-22T04:12:04.062Z,1.10
2018-01-22T04:14:30.472Z,1.10
2018-01-22T04:16:56.873Z,0.93
2018-01-22T04:19:23.296Z,0.90
2018-01-22T04:21:49.693Z,0.90
2018-01-22T04:24:16.098Z,0.93
2018-01-22T04:26:42.519Z,1.20
2018-01-22T04:29:08.931Z,1.00
2018-01-22T04:31:35.321Z,1.10
2018-01-22T04:34:01.732Z,0.80
2018-01-22T04:36:28.140Z,1.07
2018-01-22T04:38:54.537Z,0.93
2018-01-22T04:41:20.941Z,0.70
2018-01-22T04:43:47.365Z,0.90
2018-01-22T04:46:13.769Z,0.80
2018-01-22T04:48:40.204Z,1.00
2018-01-22T04:51:06.612Z,1.03
2018-01-22T04:53:38.664Z,1.00
2018-01-22T04:56:05.049Z,0.90
2018-01-22T04:58:31.481Z,0.93
2018-01-22T05:00:57.903Z,0.80
2018-01-22T05:03:24.310Z,1.10
2018-01-22T05:05:50.711Z,1.10
2018-01-22T05:08:17.130Z,1.13
2018-01-22T05:10:43.512Z,1.00
2018-01-22T05:13:09.943Z,1.10
2018-01-22T05:15:36.377Z,1.07
2018-01-22T05:18:02.802Z,1.10
2018-01-22T05:20:29.224Z,1.03
2018-01-22T05:22:55.623Z,1.20
2018-01-22T05:25:22.057Z,1.10
2018-01-22T05:27:48.456Z,0.93
2018-01-22T05:30:14.852Z,1.00
2018-01-22T05:32:41.285Z,0.83
2018-01-22T05:35:07.698Z,0.90
2018-01-22T05:37:34.259Z,1.20
2018-01-22T05:40:00.653Z,1.03
2018-01-22T05:42:27.039Z,1.10
2018-01-22T05:44:58.160Z,1.10
2018-01-22T05:47:24.557Z,1.43
2018-01-22T05:49:50.966Z,1.50
2018-01-22T05:52:17.377Z,1.90
2018-01-22T05:54:43.812Z,1.33
2018-01-22T05:57:10.227Z,1.57
2018-01-22T05:59:36.647Z,1.23
2018-01-22T06:02:03.050Z,1.37
2018-01-22T06:04:29.454Z,1.03
2018-01-22T06:06:55.867Z,1.30
2018-01-22T06:09:22.254Z,1.20
2018-01-22T06:11:48.648Z,1.10
2018-01-22T06:14:15.056Z,1.03
2018-01-22T06:16:41.454Z,1.23
2018-01-22T06:19:07.877Z,1.10
2018-01-22T06:21:34.416Z,1.30
2018-01-22T06:24:01.103Z,1.80
2018-01-22T06:26:27.478Z,1.23
2018-01-22T06:28:53.893Z,1.10
2018-01-22T06:31:20.288Z,1.20
2018-01-22T06:33:46.724Z,1.07
2018-01-22T06:36:13.134Z,1.17
2018-01-22T06:38:43.484Z,1.00
2018-01-22T06:41:09.929Z,1.40
2018-01-22T06:43:36.350Z,1.30
2018-01-22T06:46:02.777Z,1.10
2018-01-22T06:48:29.525Z,1.20
2018-01-22T06:50:55.945Z,0.90
2018-01-22T06:53:22.336Z,1.20
2018-01-22T06:55:48.732Z,1.00
2018-01-22T06:58:15.173Z,1.27
2018-01-22T07:00:41.569Z,1.20
2018-01-22T07:03:07.962Z,1.07
2018-01-22T07:05:34.390Z,0.90
2018-01-22T07:08:00.776Z,1.20
2018-01-22T07:10:27.191Z,1.03
2018-01-22T07:12:53.618Z,0.93
2018-01-22T07:15:20.008Z,1.13
2018-01-22T07:17:46.420Z,1.00
2018-01-22T07:20:12.828Z,1.00
2018-01-22T07:30:21.121Z,1.10
2018-01-22T07:32:47.527Z,0.83
2018-01-22T07:35:13.905Z,0.70
2018-01-22T07:37:40.464Z,1.10
2018-01-22T07:40:06.873Z,0.80
2018-01-22T07:42:33.268Z,1.00
2018-01-22T07:44:59.676Z,0.90
2018-01-22T07:47:26.072Z,0.87
2018-01-22T07:49:52.469Z,0.90
2018-01-22T07:52:18.912Z,0.90
2018-01-22T07:54:45.320Z,0.73
2018-01-22T07:57:11.750Z,0.70
2018-01-22T07:59:38.173Z,1.00
2018-01-22T08:02:04.584Z,0.90
2018-01-22T08:04:30.971Z,0.90
2018-01-22T08:06:57.416Z,0.90
2018-01-22T08:09:23.800Z,0.77
2018-01-22T08:11:50.218Z,0.90
2018-01-22T08:14:16.615Z,0.67
2018-01-22T08:16:43.011Z,0.70
2018-01-22T08:19:09.432Z,0.90
2018-01-22T08:21:35.864Z,0.60
2018-01-22T08:24:02.274Z,0.90
2018-01-22T08:26:28.681Z,0.80
2018-01-22T08:28:55.100Z,0.90
2018-01-22T08:31:21.515Z,0.83
2018-01-22T08:33:47.936Z,0.90
2018-01-22T08:36:14.355Z,0.87
2018-01-22T08:38:40.759Z,1.03
2018-01-22T08:41:07.164Z,0.90
2018-01-22T08:43:33.585Z,1.10
2018-01-22T08:46:00.003Z,0.87
2018-01-22T08:48:26.393Z,1.20
2018-01-22T08:50:52.812Z,1.10
2018-01-22T08:53:19.218Z,1.10
2018-01-22T08:55:45.630Z,1.30
2018-01-22T08:58:13.144Z,1.33
2018-01-22T09:00:39.557Z,1.60
2018-01-22T09:03:05.968Z,1.40
2018-01-22T09:05:32.382Z,1.77
2018-01-22T09:07:58.787Z,1.90
2018-01-22T09:10:25.198Z,2.03
2018-01-22T09:12:51.596Z,2.07
2018-01-22T09:15:18.004Z,2.40
2018-01-22T09:17:44.420Z,2.50
2018-01-22T09:20:10.824Z,2.50
2018-01-22T09:22:37.248Z,2.60
2018-01-22T09:25:03.651Z,3.13
2018-01-22T09:27:30.050Z,3.47
2018-01-22T09:29:56.464Z,3.47
2018-01-22T09:32:22.861Z,3.43
2018-01-22T09:34:49.292Z,3.70
2018-01-22T09:37:15.693Z,4.10
2018-01-22T09:39:42.114Z,4.50
2018-01-22T09:42:08.512Z,4.20
2018-01-22T09:44:34.945Z,4.73
2018-01-22T09:47:01.348Z,4.77
2018-01-22T09:49:27.748Z,4.63
2018-01-22T09:51:54.164Z,5.00
2018-01-22T09:54:20.578Z,5.10
2018-01-22T09:56:46.973Z,5.60
2018-01-22T09:59:13.404Z,6.00
2018-01-22T10:01:39.777Z,5.63
2018-01-22T10:04:06.218Z,5.90
2018-01-22T10:06:32.620Z,5.70
2018-01-22T10:08:59.068Z,5.13
2018-01-22T10:11:25.457Z,5.00
2018-01-22T10:13:51.861Z,4.63
2018-01-22T10:16:18.297Z,4.60
2018-01-22T10:18:44.717Z,3.87
2018-01-22T10:21:11.106Z,3.77
2018-01-22T10:23:37.523Z,3.80
2018-01-22T10:26:03.905Z,3.57
2018-01-22T10:28:30.299Z,3.70
2018-01-22T10:30:56.723Z,3.43
2018-01-22T10:33:23.120Z,3.47
2018-01-22T10:35:49.675Z,3.43
2018-01-22T10:38:16.051Z,3.20
2018-01-22T10:40:42.462Z,3.50
2018-01-22T10:43:08.888Z,3.30
2018-01-22T10:45:35.288Z,3.83
2018-01-22T10:48:01.702Z,3.77
2018-01-22T10:50:28.111Z,3.70
2018-01-22T10:52:54.535Z,3.23
2018-01-22T10:55:20.947Z,3.50
2018-01-22T10:57:47.355Z,3.40
2018-01-22T11:00:13.782Z,3.33
2018-01-22T11:02:40.199Z,3.30
2018-01-22T11:05:06.633Z,3.00
2018-01-22T11:07:32.995Z,3.07
2018-01-22T11:09:59.394Z,3.10
2018-01-22T11:12:25.803Z,3.27
2018-01-22T11:14:52.192Z,3.23
2018-01-22T11:17:18.603Z,3.07
2018-01-22T11:19:45.013Z,2.97
2018-01-22T11:22:11.412Z,3.07
2018-01-22T11:24:37.829Z,2.97
2018-01-22T11:27:04.220Z,2.97
2018-01-22T11:29:30.623Z,3.30
2018-01-22T11:31:57.037Z,3.33
2018-01-22T11:34:23.448Z,3.00
2018-01-22T11:36:49.846Z,3.17
2018-01-22T11:39:16.297Z,2.80
2018-01-22T11:41:42.771Z,3.00
2018-01-22T11:44:09.177Z,3.50
2018-01-22T11:46:35.588Z,2.80
2018-01-22T11:49:02.011Z,4.07
2018-01-22T11:51:28.434Z,2.90
2018-01-22T11:53:54.876Z,3.20
2018-01-22T11:56:21.298Z,3.23
2018-01-22T11:58:47.744Z,2.87
2018-01-22T12:01:14.174Z,2.90
2018-01-22T12:03:40.735Z,2.80
2018-01-22T12:06:07.149Z,2.97
2018-01-22T12:08:33.557Z,3.27
2018-01-22T12:10:59.968Z,3.10
2018-01-22T12:13:26.361Z,2.70
2018-01-22T12:15:52.755Z,2.73
2018-01-22T12:18:19.172Z,2.73
2018-01-22T12:20:45.615Z,2.80
2018-01-22T12:23:12.031Z,2.50
2018-01-22T12:25:38.452Z,2.77
2018-01-22T12:28:04.856Z,2.90
2018-01-22T12:30:31.260Z,2.63
2018-01-22T12:32:57.678Z,2.67
2018-01-22T12:35:24.096Z,2.53
2018-01-22T12:37:50.515Z,2.50
2018-01-22T12:40:16.938Z,2.57
2018-01-22T12:42:43.347Z,2.43
2018-01-22T12:45:09.743Z,2.60
2018-01-22T12:47:36.173Z,2.63
2018-01-22T12:50:02.587Z,2.60
2018-01-22T12:52:28.972Z,2.67
2018-01-22T12:54:55.391Z,2.20
2018-01-22T12:57:21.804Z,2.53
2018-01-22T12:59:48.202Z,2.40
2018-01-22T13:02:14.638Z,2.47
2018-01-22T13:04:41.053Z,2.43
2018-01-22T13:07:07.457Z,2.57
2018-01-22T13:09:33.864Z,2.40
2018-01-22T13:12:00.300Z,2.50
2018-01-22T13:14:30.720Z,2.27
2018-01-22T13:16:57.132Z,2.50
2018-01-22T13:19:23.525Z,2.50
2018-01-22T13:21:49.963Z,2.53
2018-01-22T13:24:16.372Z,2.40
2018-01-22T13:26:42.816Z,2.67
2018-01-22T13:29:09.215Z,2.50
2018-01-22T13:31:35.634Z,2.23
2018-01-22T13:34:02.031Z,2.20
2018-01-22T13:36:28.430Z,2.27
2018-01-22T13:38:54.840Z,2.13
2018-01-22T13:41:21.744Z,2.07
2018-01-22T13:43:48.155Z,2.30
2018-01-22T13:46:14.605Z,2.17
2018-01-22T13:48:41.083Z,2.00
2018-01-22T13:51:07.514Z,2.20
2018-01-22T14:03:43.312Z,2.40
2018-01-22T14:06:10.515Z,2.30
2018-01-22T14:08:36.926Z,2.10
2018-01-22T14:11:03.312Z,2.20
2018-01-22T14:18:38.164Z,2.07
2018-01-22T14:21:04.550Z,2.73
2018-01-22T14:23:30.969Z,2.10
2018-01-22T14:25:57.382Z,2.20
2018-01-22T14:28:23.794Z,2.07
2018-01-22T14:30:50.211Z,1.90
2018-01-22T14:33:16.622Z,2.03
2018-01-22T14:35:43.009Z,2.27
2018-01-22T14:38:09.421Z,2.17
2018-01-22T14:40:37.861Z,2.27
2018-01-22T14:43:04.256Z,2.23
2018-01-22T14:45:31.486Z,2.13
2018-01-22T14:47:57.895Z,2.37
2018-01-22T14:50:24.291Z,2.50
2018-01-22T14:52:50.724Z,2.03
2018-01-22T14:55:17.137Z,2.07
2018-01-22T14:57:43.532Z,2.13
2018-01-22T15:00:09.951Z,2.20
2018-01-22T15:02:36.373Z,2.17
2018-01-22T15:05:02.831Z,1.93
2018-01-22T15:10:01.757Z,2.43
2018-01-22T15:12:28.151Z,1.90
2018-01-22T15:14:54.721Z,1.93
2018-01-22T15:17:21.119Z,1.87
2018-01-22T15:19:47.544Z,2.10
2018-01-22T15:22:13.944Z,2.43
2018-01-22T15:29:45.868Z,2.20
2018-01-22T15:32:12.272Z,2.13
2018-01-22T15:39:45.778Z,1.97
2018-01-22T15:42:12.180Z,2.27
2018-01-22T15:44:38.611Z,2.17
2018-01-22T15:47:05.025Z,2.57
2018-01-22T15:49:31.432Z,2.37
2018-01-22T15:51:57.832Z,1.97
2018-01-22T15:54:24.279Z,2.17
2018-01-22T15:56:50.664Z,1.83
2018-01-22T15:59:17.084Z,2.67
2018-01-22T16:01:45.535Z,2.30
2018-01-22T16:04:11.936Z,2.17
2018-01-22T16:06:38.480Z,2.30
2018-01-22T16:09:04.884Z,2.37
2018-01-22T16:11:31.307Z,2.43
2018-01-22T16:13:57.720Z,2.17
2018-01-22T16:16:24.144Z,2.20
2018-01-22T16:18:50.535Z,2.37
2018-01-22T16:21:16.948Z,2.20
2018-01-22T16:23:43.415Z,2.27
2018-01-22T16:28:47.727Z,2.47
2018-01-22T16:31:14.112Z,2.57
2018-01-22T16:33:40.556Z,2.23
2018-01-22T16:36:06.949Z,2.13
2018-01-22T16:38:33.404Z,2.43
2018-01-22T16:40:59.820Z,2.20
2018-01-22T16:43:26.356Z,2.30
2018-01-22T16:45:52.874Z,2.40
2018-01-22T16:48:19.297Z,2.30
2018-01-22T16:50:45.687Z,2.37
2018-01-22T16:53:12.097Z,2.60
2018-01-22T16:55:38.509Z,2.10
2018-01-22T16:58:04.901Z,2.40
2018-01-22T17:15:45.410Z,2.67
2018-01-22T17:18:11.809Z,2.53
2018-01-22T17:20:38.235Z,2.20
2018-01-22T17:23:04.645Z,2.40
2018-01-22T17:25:31.055Z,1.90
2018-01-22T17:27:57.464Z,2.20
2018-01-22T17:30:23.887Z,2.50
2018-01-22T17:32:50.303Z,2.57
2018-01-22T17:37:52.935Z,2.40
2018-01-22T17:40:19.363Z,2.60
2018-01-22T17:42:45.764Z,2.70
2018-01-22T17:45:12.168Z,3.77
2018-01-22T17:47:38.577Z,7.40
2018-01-22T17:50:04.984Z,15.90
2018-01-22T17:52:31.407Z,17.73
2018-01-22T17:54:57.828Z,22.77
2018-01-22T17:57:24.256Z,21.33
2018-01-22T18:07:32.000Z,44.50
2018-01-22T18:09:58.403Z,36.93
2018-01-22T18:14:56.744Z,39.90
2018-01-22T18:17:23.159Z,36.57
2018-01-22T18:19:49.577Z,32.80
2018-01-22T18:22:16.060Z,33.80
2018-01-22T18:24:42.485Z,34.10
2018-01-22T18:27:08.895Z,32.57
2018-01-22T18:29:35.319Z,32.03
2018-01-22T18:32:01.744Z,31.00
2018-01-22T18:34:28.156Z,32.00
2018-01-22T18:36:54.579Z,31.00
2018-01-22T18:39:21.031Z,31.73
2018-01-22T18:41:47.459Z,30.13
2018-01-22T18:44:13.894Z,29.77
2018-01-22T18:46:40.303Z,28.97
2018-01-22T18:49:06.728Z,29.77
2018-01-22T18:51:33.144Z,57.43
2018-01-22T18:53:59.569Z,60.47
2018-01-22T18:56:26.000Z,62.13
2018-01-22T18:58:52.435Z,61.37
2018-01-22T19:01:18.847Z,64.03
2018-01-22T19:03:45.269Z,62.83
2018-01-22T19:06:11.692Z,65.80
2018-01-22T19:08:38.127Z,63.93
2018-01-22T19:11:04.549Z,66.83
2018-01-22T19:13:30.976Z,66.17
2018-01-22T19:15:57.408Z,63.40
2018-01-22T19:18:23.831Z,66.80
2018-01-22T19:20:50.285Z,63.27
2018-01-22T19:23:16.713Z,62.03
2018-01-22T19:25:43.132Z,61.93
2018-01-22T19:33:19.861Z,62.43
2018-01-22T19:38:18.892Z,58.47
2018-01-22T19:40:45.317Z,58.00
2018-01-22T19:43:11.748Z,54.17
2018-01-22T19:45:38.173Z,52.90
2018-01-22T19:48:04.576Z,51.10
2018-01-22T19:50:31.148Z,52.10
2018-01-22T19:52:57.548Z,48.93
2018-01-22T19:55:24.001Z,48.27
2018-01-22T20:00:23.110Z,43.83
2018-01-22T20:02:50.201Z,43.63
2018-01-22T20:05:16.592Z,42.13
2018-01-22T20:07:42.993Z,40.17
2018-01-22T20:10:09.449Z,38.83
2018-01-22T20:12:35.846Z,37.40
2018-01-22T20:15:02.290Z,35.23
2018-01-22T20:17:28.693Z,34.93
2018-01-22T20:19:55.102Z,33.17
2018-01-22T20:22:21.510Z,33.40
2018-01-22T20:37:29.231Z,27.10
2018-01-22T20:39:55.631Z,27.13
2018-01-22T20:42:22.037Z,26.70
2018-01-22T20:44:48.451Z,27.10
2018-01-22T20:47:14.864Z,25.40
2018-01-22T20:49:41.287Z,24.20
2018-01-22T20:52:07.730Z,25.23
2018-01-22T20:54:34.188Z,23.30
2018-01-22T20:57:05.769Z,24.03
2018-01-22T20:59:32.186Z,22.53
2018-01-22T21:01:58.591Z,21.83
2018-01-22T21:04:25.041Z,22.47
2018-01-22T21:06:51.444Z,21.17
2018-01-22T21:09:17.856Z,20.13
2018-01-22T21:11:44.273Z,20.57
2018-01-22T21:14:10.703Z,20.10
2018-01-22T21:16:37.107Z,18.70
2018-01-22T21:19:03.536Z,20.23
2018-01-22T21:21:29.952Z,18.93
2018-01-22T21:23:56.344Z,17.90
2018-01-22T21:26:22.783Z,16.77
2018-01-22T21:28:49.214Z,17.43
2018-01-22T21:31:15.624Z,16.13
2018-01-22T21:33:42.050Z,15.67
2018-01-22T21:36:08.461Z,15.83
2018-01-22T21:38:36.959Z,15.00
2018-01-22T21:41:03.368Z,14.13
2018-01-22T21:43:29.808Z,14.93
2018-01-22T21:45:56.249Z,14.30
2018-01-22T21:48:22.685Z,14.17
2018-01-22T21:50:49.101Z,13.53
2018-01-22T21:53:15.504Z,13.63
2018-01-22T21:55:41.944Z,12.67
2018-01-22T21:58:08.344Z,13.50
2018-01-22T22:00:34.751Z,12.27
2018-01-22T22:03:01.169Z,12.03
2018-01-22T22:05:27.581Z,12.03
2018-01-22T22:07:54.009Z,11.77
2018-01-22T22:10:20.407Z,10.83
2018-01-22T22:12:46.803Z,10.40
2018-01-22T22:15:14.080Z,9.83
2018-01-22T22:17:40.469Z,11.13
2018-01-22T22:20:06.887Z,10.63
2018-01-22T22:22:33.292Z,11.00
2018-01-22T22:24:59.679Z,10.07
2018-01-22T22:27:26.111Z,9.93
2018-01-22T22:29:52.500Z,9.87
2018-01-22T22:32:18.921Z,9.40
2018-01-22T22:34:45.316Z,9.03
2018-01-22T22:37:11.724Z,9.53
2018-01-22T22:39:38.131Z,9.23
2018-01-22T22:42:04.570Z,8.17
2018-01-22T22:44:30.997Z,9.43
2018-01-22T22:46:57.389Z,8.90
2018-01-22T22:49:24.533Z,9.33
2018-01-22T22:51:50.976Z,8.50
2018-01-22T22:54:17.394Z,8.67
2018-01-22T22:56:43.784Z,8.17
2018-01-22T22:59:10.368Z,8.13
2018-01-22T23:01:36.761Z,7.47
2018-01-22T23:04:03.165Z,7.70
2018-01-22T23:06:29.564Z,7.80
2018-01-22T23:08:55.993Z,7.17
2018-01-22T23:11:22.445Z,7.57
2018-01-22T23:13:48.841Z,7.03
2018-01-22T23:16:15.248Z,7.30
2018-01-22T23:18:41.656Z,6.63
2018-01-22T23:21:08.070Z,6.97
2018-01-22T23:23:34.490Z,6.60
2018-01-22T23:26:00.901Z,6.60
2018-01-22T23:28:27.299Z,5.70
2018-01-22T23:30:53.732Z,6.20
2018-01-22T23:33:20.140Z,6.20
2018-01-22T23:35:46.547Z,6.10
2018-01-22T23:38:12.948Z,6.60
2018-01-22T23:40:39.368Z,5.53
2018-01-22T23:43:05.782Z,6.17
2018-01-22T23:45:32.191Z,6.00
2018-01-22T23:47:58.601Z,5.17
2018-01-22T23:50:25.018Z,5.10
2018-01-22T23:52:51.424Z,5.57
2018-01-22T23:55:17.845Z,5.70
2018-01-22T23:57:44.278Z,5.00
